Pine Valley, CA (91962)

6:54 AM PST on December 11, 2016 (GMT -0800)
| | Change Station

Elev -9999 ft 0.00 °N, 0.00 °E | Updated 7 minutes ago

Partly Cloudy
Partly Cloudy
48 °F
Feels Like 48 °F
N
3
Wind Variable Wind from NW
Gusts mph

Today
High -- | Low -- °F
--% Chance of Precip.
Yesterday
High -- | Low -- °F
Precip. -- in
Pressure 30.04 in
Visibility -9999.0 miles
Clouds
Dew Point 48 °F
Humidity 100%
Rainfall --
Snow Depth Not available.
6:38 AM 4:40 PM
Waxing Gibbous, 92% visible
METAR KCZZ 111352Z AUTO 29004KT 08/08 A3009 RMK AO1 SLP173 T00830078
Pressure 30.04 in
Visibility -9999.0 miles
Clouds
Dew Point 48 °F
Humidity 100%
Rainfall --
Snow Depth Not available.
6:38 AM 4:40 PM
Waxing Gibbous, 92% visible
METAR KCZZ 111352Z AUTO 29004KT 08/08 A3009 RMK AO1 SLP173 T00830078

10-Day Weather Forecast

Almanac

Astronomy

Dec. 11, 2016 Rise Set
Actual Time
Civil Twilight
Nautical Twilight
Astronomical Twilight
Moon
Length of Visible Light
Length of Day
Tomorrow will be .
, % of the Moon is Illuminated

Today's Extremes

State Highs State Lows

Community

WunderPhotos

Upload Photos

1,956,719 photos uploaded!

WunderBlog® & News

Nearby

Air Quality

  Air Quality AQ Index Pollutant
Not available.

Snow Depth

Station Depth Elevation

Earthquake Activity

City Distance Mag. Time & Date
Minimum magnitude displayed is 2.5.

Coastal Water Temperatures

Place Temperature

Stations

Nearby Weather Stations

Station Location Temp. Windchill Dew Point Humidity Wind Precip. Elev Updated Type
                   

Watches & Warnings

There are currently no watches in effect.